createdAt,value
2023-04-12T00:00:10.988Z,99753.47
2023-04-12T00:02:38.337Z,99749.78
2023-04-12T00:05:05.397Z,99734.72
2023-04-12T00:07:32.365Z,99718.38
2023-04-12T00:09:58.885Z,99710.81
2023-04-12T00:12:25.615Z,99713.16
2023-04-12T00:14:52.258Z,99703.16
2023-04-12T00:17:19.425Z,99702.72
2023-04-12T00:19:47.749Z,99697.16
2023-04-12T00:22:14.984Z,99681.16
2023-04-12T00:24:41.874Z,99672.47
2023-04-12T00:27:09.074Z,99661.69
2023-04-12T00:29:36.175Z,99664.47
2023-04-12T00:32:03.897Z,99648.94
2023-04-12T00:34:30.743Z,99640.59
2023-04-12T00:36:57.323Z,99627.84
2023-04-12T00:39:23.911Z,99631.34
2023-04-12T00:41:50.808Z,99628.56
2023-04-12T00:44:18.398Z,99624.22
2023-04-12T00:46:46.711Z,99617.41
2023-04-12T00:49:13.572Z,99607.91
2023-04-12T00:51:40.532Z,99603.84
2023-04-12T00:54:07.256Z,99591.97
2023-04-12T00:56:34.388Z,99581.94
2023-04-12T00:59:02.127Z,99579.16
2023-04-12T01:01:28.817Z,99576.81
2023-04-12T01:04:01.034Z,99569.66
2023-04-12T01:06:48.406Z,99559.25
2023-04-12T01:09:33.579Z,99550.44
2023-04-12T01:12:08.948Z,99551.22
2023-04-12T01:14:39.432Z,99540.91
2023-04-12T01:17:08.067Z,99538.50
2023-04-12T01:19:46.137Z,99532.94
2023-04-12T01:22:31.387Z,99522.16
2023-04-12T01:24:57.868Z,99500.59
2023-04-12T01:27:33.438Z,99501.50
2023-04-12T01:30:01.544Z,99492.34
2023-04-12T01:32:29.328Z,99493.06
2023-04-12T01:34:57.820Z,99491.09
2023-04-12T01:37:24.423Z,99486.69
2023-04-12T01:39:51.087Z,99472.78
2023-04-12T01:42:21.135Z,99464.44
2023-04-12T01:44:47.851Z,99458.00
2023-04-12T01:47:15.046Z,99465.97
2023-04-12T01:50:14.159Z,99459.59
2023-04-12T01:52:45.165Z,99439.66
2023-04-12T01:55:13.439Z,99436.50
2023-04-12T01:57:40.593Z,99427.00
2023-04-12T02:00:07.966Z,99414.63
2023-04-12T02:02:41.104Z,99406.72
2023-04-12T02:05:09.280Z,99399.91
2023-04-12T02:07:37.204Z,99386.34
2023-04-12T02:10:04.033Z,99380.00
2023-04-12T02:12:30.867Z,99371.63
2023-04-12T02:14:58.196Z,99366.41
2023-04-12T02:17:24.793Z,99370.00
2023-04-12T02:19:51.534Z,99365.25
2023-04-12T02:22:18.970Z,99354.44
2023-04-12T02:24:45.756Z,99344.84
2023-04-12T02:27:12.381Z,99348.84
2023-04-12T02:29:39.014Z,99336.06
2023-04-12T02:32:06.013Z,99313.38
2023-04-12T02:34:36.520Z,99308.25
2023-04-12T02:37:16.580Z,99303.84
2023-04-12T02:39:44.686Z,99303.41
2023-04-12T02:42:11.971Z,99287.88
2023-04-12T02:44:39.406Z,99280.34
2023-04-12T02:47:14.144Z,99270.03
2023-04-12T02:49:44.666Z,99257.28
2023-04-12T02:52:14.502Z,99260.44
2023-04-12T02:54:56.122Z,99248.94
2023-04-12T02:57:23.445Z,99237.38
2023-04-12T02:59:53.311Z,99231.81
2023-04-12T03:02:33.173Z,99226.16
2023-04-12T03:05:03.457Z,99218.63
2023-04-12T03:07:38.678Z,99207.97
2023-04-12T03:10:07.303Z,99205.91
2023-04-12T03:12:38.329Z,99202.75
2023-04-12T03:15:17.777Z,99198.34
2023-04-12T03:17:48.393Z,99192.75
2023-04-12T03:20:17.548Z,99190.38
2023-04-12T03:22:51.602Z,99166.50
2023-04-12T03:25:18.690Z,99172.53
2023-04-12T03:27:52.047Z,99163.31
2023-04-12T03:30:38.588Z,99160.88
2023-04-12T03:33:05.681Z,99162.50
2023-04-12T03:35:33.888Z,99143.41
2023-04-12T03:38:01.720Z,99139.81
2023-04-12T03:40:28.446Z,99136.22
2023-04-12T03:42:59.918Z,99122.31
2023-04-12T03:45:28.762Z,99118.72
2023-04-12T03:47:58.723Z,99112.34
2023-04-12T03:50:29.606Z,99112.34
2023-04-12T03:52:57.298Z,99099.63
2023-04-12T03:55:29.801Z,99101.22
2023-04-12T03:57:57.970Z,99103.59
2023-04-12T04:00:31.718Z,99100.00
2023-04-12T04:03:05.173Z,99094.81
2023-04-12T04:05:38.532Z,99088.88
2023-04-12T04:08:07.236Z,99089.25
2023-04-12T04:10:48.785Z,99080.91
2023-04-12T04:13:15.362Z,99078.94
2023-04-12T04:15:42.295Z,99080.47
2023-04-12T04:18:10.318Z,99075.34
2023-04-12T04:20:37.719Z,99071.69
2023-04-12T04:23:05.018Z,99071.69
2023-04-12T04:25:31.927Z,99057.78
2023-04-12T04:28:02.736Z,99060.94
2023-04-12T04:30:30.594Z,99061.75
2023-04-12T04:32:57.164Z,99051.00
2023-04-12T04:35:26.010Z,99041.47
2023-04-12T04:38:13.301Z,99037.47
2023-04-12T04:40:39.902Z,99032.66
2023-04-12T04:43:09.781Z,99037.03
2023-04-12T04:45:41.492Z,99037.47
2023-04-12T04:48:08.250Z,99021.53
2023-04-12T04:50:34.782Z,99023.13
2023-04-12T04:53:02.758Z,99013.53
2023-04-12T04:55:32.395Z,99014.34
2023-04-12T04:57:59.284Z,99008.38
2023-04-12T05:00:26.671Z,99015.91
2023-04-12T05:02:56.784Z,99009.53
2023-04-12T05:05:27.143Z,99012.31
2023-04-12T05:08:01.622Z,99000.78
2023-04-12T05:10:30.565Z,98996.00
2023-04-12T05:13:01.226Z,98995.63
2023-04-12T05:15:29.975Z,98993.66
2023-04-12T05:17:56.581Z,99002.34
2023-04-12T05:20:23.137Z,99002.34
2023-04-12T05:22:49.776Z,99002.34
2023-04-12T05:25:16.486Z,98991.22
2023-04-12T05:27:52.124Z,98997.66
2023-04-12T05:30:20.292Z,98985.38
2023-04-12T05:32:47.837Z,98986.53
2023-04-12T05:35:17.518Z,98994.47
2023-04-12T05:37:45.518Z,98984.09
2023-04-12T05:40:13.481Z,98982.84
2023-04-12T05:42:40.773Z,98976.84
2023-04-12T05:45:07.751Z,98968.50
2023-04-12T05:47:36.424Z,98977.22
2023-04-12T05:50:04.306Z,98973.63
2023-04-12T05:52:32.615Z,98972.84
2023-04-12T05:54:59.899Z,98972.84
2023-04-12T05:57:27.745Z,98968.00
2023-04-12T05:59:54.890Z,98961.28
2023-04-12T06:02:26.151Z,98964.06
2023-04-12T06:04:53.849Z,98952.88
2023-04-12T06:07:21.300Z,98943.38
2023-04-12T06:09:49.660Z,98950.91
2023-04-12T06:12:16.879Z,98944.94
2023-04-12T06:14:44.332Z,98940.97
2023-04-12T06:17:11.367Z,98940.53
2023-04-12T06:19:39.882Z,98941.69
2023-04-12T06:22:06.501Z,98943.69
2023-04-12T06:24:33.736Z,98929.00
2023-04-12T06:27:00.806Z,98929.00
2023-04-12T06:29:27.892Z,98921.81
2023-04-12T06:31:54.619Z,98927.38
2023-04-12T06:34:21.590Z,98930.16
2023-04-12T06:36:49.754Z,98934.09
2023-04-12T06:39:17.047Z,98928.13
2023-04-12T06:41:43.886Z,98922.56
2023-04-12T06:44:10.589Z,98926.97
2023-04-12T06:46:37.220Z,98920.16
2023-04-12T06:49:03.962Z,98906.63
2023-04-12T06:51:31.006Z,98913.81
2023-04-12T06:53:57.802Z,98912.19
2023-04-12T06:56:24.406Z,98901.06
2023-04-12T06:58:51.012Z,98905.03
2023-04-12T07:01:17.803Z,98899.47
2023-04-12T07:03:44.648Z,98902.28
2023-04-12T07:06:24.381Z,98909.00
2023-04-12T07:08:52.529Z,98907.38
2023-04-12T07:11:21.836Z,98916.91
2023-04-12T07:13:49.055Z,98916.91
2023-04-12T07:16:15.989Z,98911.34
2023-04-12T07:18:42.716Z,98907.75
2023-04-12T07:21:09.451Z,98906.56
2023-04-12T07:23:36.024Z,98913.69
2023-04-12T07:26:02.661Z,98914.47
2023-04-12T07:28:29.242Z,98912.88
2023-04-12T07:30:55.878Z,98901.34
2023-04-12T07:33:22.838Z,98904.09
2023-04-12T07:35:49.750Z,98899.34
2023-04-12T07:38:17.013Z,98907.28
2023-04-12T07:40:43.679Z,98903.31
2023-04-12T07:43:10.448Z,98898.94
2023-04-12T07:45:38.075Z,98907.28
2023-04-12T07:48:04.985Z,98910.06
2023-04-12T07:50:31.780Z,98915.16
2023-04-12T07:53:17.094Z,98914.81
2023-04-12T07:55:43.787Z,98915.16
2023-04-12T07:58:10.519Z,98913.56
2023-04-12T08:00:37.142Z,98906.41
2023-04-12T08:03:03.988Z,98924.69
2023-04-12T08:05:31.149Z,98937.34
2023-04-12T08:07:57.858Z,98938.94
2023-04-12T08:10:24.672Z,98943.69
2023-04-12T08:12:51.250Z,98946.03
2023-04-12T08:15:17.890Z,98948.81
2023-04-12T08:17:44.732Z,98951.59
2023-04-12T08:20:12.251Z,98946.03
2023-04-12T08:22:38.930Z,98946.84
2023-04-12T08:25:05.747Z,98958.78
2023-04-12T08:27:32.428Z,98961.56
2023-04-12T08:29:59.087Z,98968.28
2023-04-12T08:32:25.895Z,98967.47
2023-04-12T08:34:52.615Z,98972.25
2023-04-12T08:37:19.322Z,98973.41
2023-04-12T08:39:46.009Z,98969.00
2023-04-12T08:42:14.565Z,98959.53
2023-04-12T08:44:41.187Z,98965.06
2023-04-12T08:47:09.510Z,98964.56
2023-04-12T08:49:36.380Z,98961.50
2023-04-12T08:52:05.742Z,98968.31
2023-04-12T08:54:32.633Z,98969.13
2023-04-12T08:57:01.170Z,98971.25
2023-04-12T08:59:28.157Z,98962.66
2023-04-12T09:01:55.486Z,98964.06
2023-04-12T09:04:22.444Z,98948.88
2023-04-12T09:06:49.101Z,98965.56
2023-04-12T09:09:15.636Z,98965.56
2023-04-12T09:11:42.362Z,98968.75
2023-04-12T09:14:25.850Z,98964.81
2023-04-12T09:16:52.605Z,98964.00
2023-04-12T09:19:39.615Z,98967.22
2023-04-12T09:22:06.314Z,98963.66
2023-04-12T09:24:45.566Z,98958.88
2023-04-12T09:27:12.183Z,98958.09
2023-04-12T09:29:38.715Z,98952.53
2023-04-12T09:32:06.770Z,98956.47
2023-04-12T09:34:35.729Z,98950.53
2023-04-12T09:37:12.764Z,98954.56
2023-04-12T09:39:40.614Z,98951.03
2023-04-12T09:42:18.173Z,98943.53
2023-04-12T09:44:53.330Z,98953.16
2023-04-12T09:47:20.499Z,98962.06
2023-04-12T09:49:47.161Z,98961.41
2023-04-12T09:52:14.244Z,98955.84
2023-04-12T09:54:45.016Z,98948.84
2023-04-12T09:57:12.318Z,98956.38
2023-04-12T09:59:39.934Z,98950.47
2023-04-12T10:02:08.679Z,98942.69
2023-04-12T10:04:37.356Z,98941.09
2023-04-12T10:07:04.559Z,98934.78
2023-04-12T10:09:31.388Z,98942.84
2023-04-12T10:11:59.399Z,98952.44
2023-04-12T10:14:27.981Z,98955.75
2023-04-12T10:16:58.772Z,98951.81
2023-04-12T10:19:26.399Z,98952.66
2023-04-12T10:21:53.165Z,98949.38
2023-04-12T10:24:23.577Z,98947.13
2023-04-12T10:26:50.574Z,98936.84
2023-04-12T10:29:25.372Z,98951.94
2023-04-12T10:31:52.459Z,98953.97
2023-04-12T10:34:23.623Z,98955.97
2023-04-12T10:36:53.688Z,98949.66
2023-04-12T10:39:35.163Z,98948.50
2023-04-12T10:42:18.774Z,98950.97
2023-04-12T10:44:45.770Z,98940.34
2023-04-12T10:47:12.602Z,98936.44
2023-04-12T10:49:39.784Z,98933.31
2023-04-12T10:52:09.346Z,98947.69
2023-04-12T10:54:36.304Z,98952.50
2023-04-12T10:57:04.273Z,98964.41
2023-04-12T10:59:59.350Z,98955.28
2023-04-12T11:02:26.495Z,98957.31
2023-04-12T11:05:14.724Z,98961.34
2023-04-12T11:08:12.212Z,98948.34
2023-04-12T11:10:39.530Z,98954.78
2023-04-12T11:13:09.126Z,98946.47
2023-04-12T11:15:38.595Z,98947.69
2023-04-12T11:18:11.297Z,98953.63
2023-04-12T11:20:39.403Z,98952.81
2023-04-12T11:23:06.293Z,98952.41
2023-04-12T11:25:33.202Z,98957.25
2023-04-12T11:28:00.952Z,98951.22
2023-04-12T11:30:28.982Z,98960.81
2023-04-12T11:32:55.568Z,98954.81
2023-04-12T11:35:27.427Z,98958.38
2023-04-12T11:37:59.814Z,98958.06
2023-04-12T11:40:26.847Z,98971.28
2023-04-12T11:42:53.836Z,98966.50
2023-04-12T11:45:22.143Z,98967.72
2023-04-12T11:47:48.911Z,98956.16
2023-04-12T11:50:27.777Z,98956.56
2023-04-12T11:52:54.630Z,98952.25
2023-04-12T11:55:21.456Z,98955.44
2023-04-12T11:57:53.088Z,98947.47
2023-04-12T12:00:20.015Z,98951.50
2023-04-12T12:02:59.677Z,98954.72
2023-04-12T12:05:37.483Z,98951.09
2023-04-12T12:08:07.556Z,98959.47
2023-04-12T12:10:44.237Z,98957.06
2023-04-12T12:13:18.925Z,98972.19
2023-04-12T12:15:46.255Z,98986.53
2023-04-12T12:18:13.011Z,98980.13
2023-04-12T12:20:40.514Z,98986.19
2023-04-12T12:23:07.264Z,98992.94
2023-04-12T12:25:34.276Z,98990.56
2023-04-12T12:28:03.593Z,98988.22
2023-04-12T12:30:30.731Z,98989.38
2023-04-12T12:32:57.493Z,98989.38
2023-04-12T12:35:25.472Z,98986.63
2023-04-12T12:37:52.802Z,98988.63
2023-04-12T12:40:29.398Z,98990.19
2023-04-12T12:42:56.307Z,98989.03
2023-04-12T12:45:24.240Z,98990.63
2023-04-12T12:47:50.869Z,98987.06
2023-04-12T12:50:18.784Z,98984.31
2023-04-12T12:52:48.424Z,98984.38
2023-04-12T12:55:15.394Z,98975.25
2023-04-12T12:57:42.687Z,98977.25
2023-04-12T13:00:10.941Z,98972.50
2023-04-12T13:02:38.626Z,98977.28
2023-04-12T13:05:06.089Z,98973.31
2023-04-12T13:07:34.197Z,98968.56
2023-04-12T13:10:01.146Z,98982.91
2023-04-12T13:12:27.786Z,98995.66
2023-04-12T13:15:03.067Z,99001.16
2023-04-12T13:17:39.909Z,98983.72
2023-04-12T13:20:06.945Z,98980.50
2023-04-12T13:22:33.541Z,98974.97
2023-04-12T13:25:00.677Z,98977.38
2023-04-12T13:27:27.627Z,98979.81
2023-04-12T13:29:54.204Z,98981.41
2023-04-12T13:32:20.917Z,98973.03
2023-04-12T13:34:47.541Z,98981.38
2023-04-12T13:37:14.138Z,98977.81
2023-04-12T13:39:41.192Z,98992.16
2023-04-12T13:42:08.440Z,98991.66
2023-04-12T13:44:35.173Z,98983.69
2023-04-12T13:47:01.859Z,98981.72
2023-04-12T13:49:28.499Z,98983.72
2023-04-12T13:51:55.736Z,98972.59
2023-04-12T13:54:22.405Z,98979.03
2023-04-12T13:56:49.190Z,98976.22
2023-04-12T13:59:15.929Z,98978.19
2023-04-12T14:01:42.699Z,98979.75
2023-04-12T14:04:09.819Z,98983.72
2023-04-12T14:06:36.645Z,98996.94
2023-04-12T14:09:05.641Z,98996.16
2023-04-12T14:11:45.324Z,98994.97
2023-04-12T14:14:12.178Z,98989.78
2023-04-12T14:16:39.105Z,99003.75
2023-04-12T14:19:05.777Z,98997.34
2023-04-12T14:21:32.524Z,99000.53
2023-04-12T14:24:00.336Z,99010.09
2023-04-12T14:26:27.441Z,99015.28
2023-04-12T14:28:54.102Z,99015.69
2023-04-12T14:31:21.099Z,99005.31
2023-04-12T14:33:47.813Z,99004.84
2023-04-12T14:36:14.372Z,99017.28
2023-04-12T14:38:42.089Z,99010.44
2023-04-12T14:41:09.635Z,99002.06
2023-04-12T14:43:36.349Z,99019.56
2023-04-12T14:46:02.952Z,99014.34
2023-04-12T14:48:29.571Z,99023.16
2023-04-12T14:50:56.122Z,99018.34
2023-04-12T14:53:23.534Z,99010.72
2023-04-12T14:55:50.201Z,99017.09
2023-04-12T14:58:17.031Z,99023.47
2023-04-12T15:00:43.552Z,99028.22
2023-04-12T15:03:10.538Z,99033.38
2023-04-12T15:05:37.723Z,99030.63
2023-04-12T15:08:04.612Z,99018.56
2023-04-12T15:10:31.763Z,99018.66
2023-04-12T15:12:58.395Z,98991.56
2023-04-12T15:15:24.953Z,99008.19
2023-04-12T15:17:51.712Z,99006.66
2023-04-12T15:20:18.458Z,99010.63
2023-04-12T15:22:45.102Z,99016.22
2023-04-12T15:25:11.940Z,99013.00
2023-04-12T15:27:38.694Z,99020.22
2023-04-12T15:30:08.392Z,99023.38
2023-04-12T15:32:39.187Z,99029.81
2023-04-12T15:35:22.692Z,99024.25
2023-04-12T15:37:52.615Z,99025.25
2023-04-12T15:40:21.503Z,99018.50
2023-04-12T15:42:48.046Z,99026.19
2023-04-12T15:45:14.533Z,99023.00
2023-04-12T15:47:41.265Z,99032.63
2023-04-12T15:50:08.779Z,99022.25
2023-04-12T15:52:36.278Z,99016.28
2023-04-12T15:55:05.161Z,99011.91
2023-04-12T15:57:32.388Z,99011.50
2023-04-12T15:59:59.852Z,99011.09
2023-04-12T16:02:27.008Z,99018.72
2023-04-12T16:04:55.999Z,99005.50
2023-04-12T16:07:22.677Z,99001.53
2023-04-12T16:09:49.440Z,99000.34
2023-04-12T16:12:16.129Z,99005.50
2023-04-12T16:14:43.140Z,99000.72
2023-04-12T16:17:10.108Z,99009.13
2023-04-12T16:19:36.738Z,99002.34
2023-04-12T16:22:03.593Z,99000.78
2023-04-12T16:24:30.248Z,98999.56
2023-04-12T16:26:57.524Z,98997.22
2023-04-12T16:29:24.455Z,98995.97
2023-04-12T16:31:52.219Z,99003.13
2023-04-12T16:34:21.928Z,98988.00
2023-04-12T16:36:49.120Z,98991.19
2023-04-12T16:39:16.579Z,98989.59
2023-04-12T16:41:43.984Z,98999.13
2023-04-12T16:44:10.802Z,98997.09
2023-04-12T16:46:37.871Z,98994.25
2023-04-12T16:49:04.854Z,98989.41
2023-04-12T16:51:36.752Z,98988.59
2023-04-12T16:54:04.434Z,98986.22
2023-04-12T16:56:31.223Z,98983.41
2023-04-12T16:58:59.038Z,98985.78
2023-04-12T17:01:25.665Z,98973.44
2023-04-12T17:03:52.394Z,98975.41
2023-04-12T17:06:19.531Z,98971.81
2023-04-12T17:08:46.725Z,98974.97
2023-04-12T17:11:14.137Z,98973.47
2023-04-12T17:13:40.803Z,98959.16
2023-04-12T17:16:07.752Z,98968.72
2023-04-12T17:18:34.836Z,98975.84
2023-04-12T17:21:01.847Z,98967.91
2023-04-12T17:23:28.753Z,98972.69
2023-04-12T17:25:56.612Z,98972.75
2023-04-12T17:28:23.109Z,98998.72
2023-04-12T17:30:49.675Z,99002.28
2023-04-12T17:33:18.049Z,99002.25
2023-04-12T17:35:45.307Z,99002.22
2023-04-12T17:38:12.095Z,98996.22
2023-04-12T17:40:38.790Z,99002.19
2023-04-12T17:43:05.377Z,99011.06
2023-04-12T17:45:33.800Z,99006.13
2023-04-12T17:48:00.713Z,99013.19
2023-04-12T17:50:27.752Z,99006.75
2023-04-12T17:52:55.662Z,98992.72
2023-04-12T17:55:24.167Z,98991.50
2023-04-12T17:57:50.670Z,98999.47
2023-04-12T18:00:18.884Z,98990.69
2023-04-12T18:02:46.595Z,98991.50
2023-04-12T18:05:13.466Z,98983.56
2023-04-12T18:07:41.205Z,98995.47
2023-04-12T18:10:08.373Z,98987.53
2023-04-12T18:12:35.365Z,98991.09
2023-04-12T18:15:03.545Z,98989.09
2023-04-12T18:17:30.230Z,98990.66
2023-04-12T18:19:56.810Z,98989.44
2023-04-12T18:22:23.526Z,98983.03
2023-04-12T18:24:50.251Z,98991.44
2023-04-12T18:27:16.707Z,98984.28
2023-04-12T18:29:43.237Z,98981.06
2023-04-12T18:32:09.726Z,98980.25
2023-04-12T18:34:36.279Z,98982.63
2023-04-12T18:37:05.995Z,98987.41
2023-04-12T18:39:34.546Z,98999.78
2023-04-12T18:42:01.623Z,99008.94
2023-04-12T18:44:28.856Z,99038.41
2023-04-12T18:46:55.708Z,99049.56
2023-04-12T18:49:22.350Z,99044.31
2023-04-12T18:51:49.259Z,99027.94
2023-04-12T18:54:17.515Z,99028.72
2023-04-12T18:56:44.045Z,99042.66
2023-04-12T18:59:17.270Z,99031.09
2023-04-12T19:01:44.425Z,99019.50
2023-04-12T19:04:11.465Z,99020.72
2023-04-12T19:06:38.314Z,99025.47
2023-04-12T19:09:05.598Z,99020.28
2023-04-12T19:11:34.189Z,99013.50
2023-04-12T19:14:03.186Z,99019.84
2023-04-12T19:16:29.848Z,99015.03
2023-04-12T19:19:00.377Z,99022.25
2023-04-12T19:21:31.083Z,99023.81
2023-04-12T19:23:57.978Z,99042.94
2023-04-12T19:26:24.853Z,99079.94
2023-04-12T19:28:55.426Z,99086.72
2023-04-12T19:31:23.933Z,99094.66
2023-04-12T19:33:50.576Z,99080.28
2023-04-12T19:36:17.355Z,99050.78
2023-04-12T19:38:44.708Z,99052.81
2023-04-12T19:41:11.418Z,99046.41
2023-04-12T19:43:38.172Z,99040.44
2023-04-12T19:46:05.147Z,99033.25
2023-04-12T19:48:32.614Z,99023.25
2023-04-12T19:50:59.738Z,99016.09
2023-04-12T19:53:26.891Z,99008.91
2023-04-12T19:55:57.048Z,99000.56
2023-04-12T19:58:24.949Z,98988.19
2023-04-12T20:00:52.375Z,98991.34
2023-04-12T20:03:19.082Z,98989.31
2023-04-12T20:05:46.219Z,99006.84
2023-04-12T20:08:12.747Z,99023.56
2023-04-12T20:10:39.388Z,99045.06
2023-04-12T20:13:09.796Z,99059.41
2023-04-12T20:15:37.463Z,99048.25
2023-04-12T20:18:05.165Z,99027.53
2023-04-12T20:20:32.576Z,99021.94
2023-04-12T20:22:59.198Z,99021.47
2023-04-12T20:25:25.954Z,99006.75
2023-04-12T20:27:53.048Z,99007.13
2023-04-12T20:30:21.183Z,99025.03
2023-04-12T20:32:54.106Z,99022.63
2023-04-12T20:35:21.713Z,99009.09
2023-04-12T20:37:50.576Z,98993.53
2023-04-12T20:40:17.655Z,99007.47
2023-04-12T20:42:45.237Z,98999.03
2023-04-12T20:45:12.262Z,98987.56
2023-04-12T20:47:38.990Z,98995.16
2023-04-12T20:50:06.105Z,98987.94
2023-04-12T20:52:32.743Z,98981.19
2023-04-12T20:54:59.356Z,98981.66
2023-04-12T20:57:27.587Z,98975.28
2023-04-12T20:59:55.397Z,98978.47
2023-04-12T21:02:22.285Z,98964.13
2023-04-12T21:04:49.200Z,98967.31
2023-04-12T21:07:16.028Z,98963.31
2023-04-12T21:09:42.602Z,98968.91
2023-04-12T21:12:09.876Z,98965.31
2023-04-12T21:14:37.775Z,98962.16
2023-04-12T21:17:05.043Z,98961.28
2023-04-12T21:19:31.756Z,98954.53
2023-04-12T21:21:59.005Z,98961.75
2023-04-12T21:24:26.150Z,98957.34
2023-04-12T21:26:58.198Z,98948.88
2023-04-12T21:29:25.126Z,98941.72
2023-04-12T21:31:51.842Z,98945.78
2023-04-12T21:34:18.708Z,98930.47
2023-04-12T21:36:45.357Z,98929.59
2023-04-12T21:39:12.313Z,98922.00
2023-04-12T21:41:39.029Z,98924.81
2023-04-12T21:44:05.742Z,98921.59
2023-04-12T21:46:32.235Z,98920.41
2023-04-12T21:48:58.949Z,98914.06
2023-04-12T21:51:26.500Z,98906.06
2023-04-12T21:53:53.162Z,98904.72
2023-04-12T21:56:19.668Z,98898.38
2023-04-12T21:58:46.207Z,98899.47
2023-04-12T22:01:13.943Z,98908.53
2023-04-12T22:03:41.553Z,98891.78
2023-04-12T22:06:08.724Z,98882.25
2023-04-12T22:08:35.446Z,98878.94
2023-04-12T22:11:02.176Z,98869.75
2023-04-12T22:13:28.731Z,98877.31
2023-04-12T22:15:55.307Z,98880.38
2023-04-12T22:18:22.058Z,98876.41
2023-04-12T22:20:48.814Z,98864.91
2023-04-12T22:23:18.109Z,98867.63
2023-04-12T22:25:45.521Z,98852.44
2023-04-12T22:28:12.460Z,98844.44
2023-04-12T22:30:39.609Z,98838.88
2023-04-12T22:33:08.402Z,98843.69
2023-04-12T22:35:36.347Z,98826.13
2023-04-12T22:38:04.176Z,98831.66
2023-04-12T22:40:30.893Z,98815.75
2023-04-12T22:42:58.260Z,98818.91
2023-04-12T22:45:25.195Z,98807.75
2023-04-12T22:47:52.959Z,98819.66
2023-04-12T22:50:19.922Z,98825.97
2023-04-12T22:52:49.760Z,98832.31
2023-04-12T22:55:18.106Z,98825.97
2023-04-12T22:57:45.077Z,98819.53
2023-04-12T23:00:17.086Z,98825.47
2023-04-12T23:02:44.995Z,98812.75
2023-04-12T23:05:12.714Z,98829.81
2023-04-12T23:07:41.287Z,98818.69
2023-04-12T23:10:08.890Z,98820.16
2023-04-12T23:12:37.379Z,98801.03
2023-04-12T23:15:06.228Z,98815.34
2023-04-12T23:17:33.882Z,98803.38
2023-04-12T23:20:01.850Z,98809.78
2023-04-12T23:22:55.166Z,98797.81
2023-04-12T23:25:22.734Z,98800.59
2023-04-12T23:27:49.685Z,98802.94
2023-04-12T23:30:17.544Z,98804.50
2023-04-12T23:32:44.179Z,98799.31
2023-04-12T23:35:12.238Z,98807.25
2023-04-12T23:37:41.034Z,98816.75
2023-04-12T23:40:13.576Z,98810.78
2023-04-12T23:42:40.623Z,98814.72
2023-04-12T23:45:07.902Z,98822.31
2023-04-12T23:47:34.637Z,98815.94
2023-04-12T23:50:01.393Z,98815.13
2023-04-12T23:52:28.063Z,98819.03
2023-04-12T23:54:54.737Z,98813.44
2023-04-12T23:57:21.766Z,98809.03
2023-04-12T23:59:48.294Z,98815.00
